OOLO2: Oologah Lake

Data processed at Sun Jan 13 2019 23:32


All information presented herein is the property of the government of the United States of America and may be revised or deleted at any time without prior notice.
Dissemination of this information without the expressed written consent of the Public Affairs Office, Tulsa District U.S. Army Corps of Engineers is strictly prohibited.
These data are gathered electronically and, as presented, have not undergone any form of quality control. These data are not guaranteed to be valid or correct.
Go to home page.
Go to station list.
Go to home page.

Upstream stations:

Downstream station:
Previous Day
Next Day
Current Day
    
SHEF ID:       OOLO2     Oologah Lake
STATION TYPE:  RESERVOIR
Normal Pool:  Bottom =   592.00, Top =   638.00

               PRECIP     STAGE  RIV-FLOW ELEVATION   STORAGE   TW-ELEV    INFLOW   RELEASE  AIR-TEMP  WIND-DIRWIND-SPEED REL-HUMID SOLAR-RAD   VOLTAGE  BAT-LOAD
                   in        ft       cfs        ft     ac-ft        ft       cfs       cfs         F       deg       mph         %      W/m2      volt      volt
              Ccp-Rev   Ccp-Rev   Ccp-Rev   Ccp-Rev   Ccp-Rev   Ccp-Rev  Regi-Rev  Regi-Rev   Ccp-Rev   Ccp-Rev   Ccp-Rev   Ccp-Rev   Ccp-Rev   Ccp-Rev   Ccp-Rev
(US/Central)
01/13 00:00      0.00     21.18     10919    645.56    702175      ----     27622     10207     34.11    306.40     10.60     82.36      0.00     13.47     13.29
01/13 01:00      0.00     21.20     10947    645.59    703255      ----     30237     10211     34.11    295.80      9.20     83.11      0.00     13.47     13.29
01/13 02:00      0.00     21.18     10919    645.63    704694      ----     30240     10212     34.25    303.90      9.30     82.53      0.00     13.47     13.21
01/13 03:00      0.00     21.18     10919    645.70    707213      ----     27631     10216     34.25    313.00      9.60     82.67      0.00     13.48     13.29
01/13 04:00      0.00     21.19     10933    645.74    708652      ----     28504     10220     34.23    318.30      8.30     83.50      0.00     13.48     13.21
01/13 05:00      0.00     21.19     10933    645.76    709372      ----     26765     10222     34.14    315.40      9.00     83.49      0.00     13.48     13.21
01/13 06:00      0.00     21.19     10933    645.80    710811      ----     23284     10223     33.76    313.40     10.40     83.15      0.00     13.47     13.21
01/13 07:00      0.00     21.18     10919    645.82    711530      ----     22416     10225     33.53    319.10      9.90     82.50      0.00     13.48     13.21
01/13 08:00      0.00     21.20     10947    645.85    712610      ----     21547     10227     33.48    314.00      8.00     83.82      0.00     13.48     13.21
01/13 09:00      0.00     21.20     10947    645.88    713689      ----     17194     10229     33.49    307.10      8.70     84.51      9.70     13.48     13.21
01/13 10:00      0.00     23.29     13929    645.89    714049      ----     15454     10230     33.67    322.60      8.70     83.36     26.00     13.48     12.89
01/13 11:00      0.00     23.85     14770    645.88    713689      ----     12842     10230     33.37    321.70      7.90     83.22     25.80     13.48     13.21
01/13 12:00      0.00     24.10     15089    645.88    713689      ----     10230     10230     33.08    315.70      8.50     84.19     34.80     13.48     13.21
01/13 13:00      0.00     24.25     15279    645.88    713689      ----     10230     10230     33.21    324.30      6.60     83.61     42.10     13.48     13.21
01/13 14:00      0.00     24.34     15393    645.88    713689      ----     11101     10230     33.39    318.90      7.70     82.51     56.80     13.48     13.21
01/13 15:00      0.00     24.39     15457    645.89    714049      ----     11101     10230     33.37    311.60      7.50     82.03     57.40     13.48     13.21
01/13 16:00      0.00     24.42     15495    645.89    714049      ----     11101     10231     33.96    319.10      4.40     80.42     18.40     13.48     13.21
01/13 17:00      0.00     24.45     15534    645.89    714049      ----     11101     10231     33.82    318.60      6.20     80.40      0.00     13.48     13.21
01/13 18:00      0.00     24.45     15534    645.89    714049      ----     10231     10231     33.49    312.90      6.90     81.94      0.00     13.48     13.21
01/13 19:00      0.00     24.48     15572    645.89    714049      ----     10231     10231     33.44    323.70      5.60     81.81      0.00     13.48     13.21
01/13 20:00      0.00     24.48     15572    645.89    714049      ----      9360     10231     33.49    323.60      4.90     81.78      0.00     13.48     13.21
01/13 21:00      0.00     24.47     15559    645.89    714049      ----      9360     10231     33.04    319.40      6.00     83.01      0.00     13.48     13.21
01/13 22:00      0.00     24.46     15546    645.88    713689      ----      7618     10230     32.83    308.40      5.70     83.75      0.00     13.48     13.21
01/13 23:00      0.00     24.47     15559    645.87    713329      ----      -901      -901     32.52    318.20      5.30     85.95      0.00     13.47     13.21